Airfield :
LOGIN :

Register | Disclaimer

   EN    FR    IT 

 










Legend :    VFR   Marginal VFR   IFR   Intensive IFR   Very Intensive IFR
Visi :
Ceiling :
>= 8 km
>= 3000ft
5 to 8 km
1000 to 3000 ft
1500m to 5 km
500 to 1000 ft
800 to 1500m
200 to 500 ft
< 800m
< 200 ft
Symbols :   Thunderstorms  Fog  Heavy snow  Heavy precipitations  Wind > 20 kt
SIGMETs :     Misc.  Thunderstorms  Icing  Turbulence  Mountain Waves  Volcanic Ashes






- Airport Elevation : 220 ft
- IATA code : CWL


EGFF - Cardiff Rhoose

CURRENT METAR :
  • 282120Z AUTO 24009KT 9999 OVC013 10/09 Q1010

EXPIRED METARs :
  • 282050Z AUTO 24009KT 9999 BKN013 OVC024 10/09 Q1011
  • 282020Z AUTO 26011KT 9999 BKN011 BKN015 OVC027 10/10 Q1011
  • 281950Z AUTO 25010KT 9999 OVC011 11/10 Q1011
  • 281920Z AUTO 26008KT 9999 BKN014 OVC021 10/10 Q1011
  • 281850Z AUTO 26010KT 9999 BKN012 OVC024 11/10 Q1012
  • 281820Z AUTO 25010KT 9999 OVC011 11/10 Q1012
  • 281750Z AUTO 25008KT 9999 OVC012 10/10 Q1012
  • 281720Z AUTO 26007KT 9999 OVC010 11/10 Q1013
  • 281650Z AUTO 26008KT 9999 OVC009 11/10 Q1013

TAF TAF EGFF
Valid from the 28 at 18:00 until the 29 at 18:00 UTC


281659Z 2818/2918 22010KT 9999 BKN010
TEMPO 2818/2823 4000 DZ BR BKN004
PROB30
TEMPO 2818/2823 0300 FG BKN000
TEMPO 2819/2902 21016G26KT
TEMPO 2823/2906 6000 RA BKN004
PROB30
TEMPO 2823/2906 3000 +RA RADZ
BECMG 2901/2903 28010KT SCT012
PROB30
TEMPO 2912/2917 7000 SHRA BKN012
ATIS : +44 1446 729 319



MET'MAP, your aeronautical weather chart ! - Copyright ORBIFLY December 2007 - Disclaimer

ORBIFLY MET'MAP TEAM :

Programming & Development : Alexandra Zaïnal
Original concept : Baudouin d'Aumeries
Technical & hardware support : Manuel Goepfert
Assistance : Marc-Olivier Méhu




SOURCES & CREDITS :

   NOAA